createdAt,value
2022-08-17T00:00:07.682Z,20.9
2022-08-17T00:15:02.523Z,20.9
2022-08-17T00:30:05.093Z,20.8
2022-08-17T00:45:03.133Z,20.7
2022-08-17T01:00:05.923Z,20.6
2022-08-17T01:15:03.151Z,20.6
2022-08-17T01:30:05.578Z,20.5
2022-08-17T01:45:02.440Z,20.5
2022-08-17T02:00:05.793Z,20.4
2022-08-17T02:15:03.597Z,20.4
2022-08-17T02:30:04.607Z,20.3
2022-08-17T02:45:02.545Z,20.3
2022-08-17T03:00:04.945Z,20.3
2022-08-17T03:15:04.677Z,20.2
2022-08-17T03:30:05.376Z,20.2
2022-08-17T03:45:02.510Z,20.2
2022-08-17T04:00:04.554Z,20.1
2022-08-17T04:15:02.498Z,20.1
2022-08-17T04:30:07.886Z,20.0
2022-08-17T04:45:02.761Z,20
2022-08-17T05:00:04.772Z,20
2022-08-17T05:15:03.270Z,20
2022-08-17T05:30:05.938Z,20
2022-08-17T05:45:02.597Z,20
2022-08-17T06:00:09.921Z,20.1
2022-08-17T06:15:02.730Z,20.1
2022-08-17T06:30:04.650Z,20.2
2022-08-17T06:45:02.864Z,20.3
2022-08-17T07:00:08.162Z,20.4
2022-08-17T07:15:02.810Z,20.4
2022-08-17T07:30:11.156Z,20.5
2022-08-17T07:45:03.155Z,20.5
2022-08-17T08:00:04.423Z,20.6
2022-08-17T08:15:03.817Z,20.6
2022-08-17T08:30:04.264Z,20.7
2022-08-17T08:45:04.288Z,20.8
2022-08-17T09:00:05.781Z,20.8
2022-08-17T09:15:02.473Z,20.9
2022-08-17T09:30:02.984Z,20.9
2022-08-17T09:45:03.326Z,21.0
2022-08-17T10:00:07.491Z,21.1
2022-08-17T10:15:07.860Z,21.1
2022-08-17T10:30:04.452Z,21.1
2022-08-17T10:45:02.194Z,21.2
2022-08-17T11:00:10.662Z,21.2
2022-08-17T11:15:03.536Z,21.3
2022-08-17T11:30:04.531Z,21.4
2022-08-17T11:45:03.582Z,21.5
2022-08-17T12:00:07.131Z,21.5
2022-08-17T12:15:11.294Z,21.6
2022-08-17T12:30:06.053Z,21.7
2022-08-17T12:45:02.395Z,21.8
2022-08-17T13:00:05.323Z,21.8
2022-08-17T13:15:03.262Z,21.9
2022-08-17T13:30:06.551Z,22.0
2022-08-17T13:45:22.423Z,22.1
2022-08-17T14:00:06.195Z,22.1
2022-08-17T14:15:04.631Z,22.2
2022-08-17T14:30:05.857Z,22.2
2022-08-17T14:45:04.312Z,22.3
2022-08-17T15:00:04.232Z,22.4
2022-08-17T15:15:04.421Z,22.4
2022-08-17T15:30:04.636Z,22.4
2022-08-17T15:45:02.845Z,22.5
2022-08-17T16:00:07.365Z,22.6
2022-08-17T16:15:03.080Z,22.6
2022-08-17T16:30:03.613Z,22.5
2022-08-17T16:45:03.243Z,22.5
2022-08-17T17:00:04.776Z,22.4
2022-08-17T17:15:02.659Z,22.3
2022-08-17T17:30:06.983Z,22.3
2022-08-17T17:45:03.222Z,22.2
2022-08-17T18:00:04.475Z,22.2
2022-08-17T18:15:03.579Z,22.1
2022-08-17T18:30:09.135Z,22.0
2022-08-17T18:45:02.725Z,22
2022-08-17T19:00:04.504Z,21.9
2022-08-17T19:15:02.574Z,21.9
2022-08-17T19:30:08.333Z,21.8
2022-08-17T19:45:03.836Z,21.8
2022-08-17T20:00:04.306Z,21.7
2022-08-17T20:15:03.500Z,21.7
2022-08-17T20:30:05.841Z,21.6
2022-08-17T20:45:03.417Z,21.6
2022-08-17T21:00:04.629Z,21.5
2022-08-17T21:15:02.462Z,21.5
2022-08-17T21:30:06.603Z,21.5
2022-08-17T21:45:02.290Z,21.4
2022-08-17T22:00:03.491Z,21.4
2022-08-17T22:15:02.116Z,21.4
2022-08-17T22:30:04.632Z,21.4
2022-08-17T22:45:02.514Z,21.4
2022-08-17T23:00:04.520Z,21.3
2022-08-17T23:15:02.681Z,21.3
2022-08-17T23:30:04.242Z,21.2
2022-08-17T23:45:02.912Z,21.2
